Los Angeles, CA

7:17 PM PST on February 20, 2017 (GMT -0800)
Victoria Ave Elementary | | Change Station

Elev 125 ft 33.95 °N, 118.21 °W | Updated 14 seconds ago

Overcast
Overcast
59.2 °F
Feels Like 59.2 °F
N
0.0
Wind Variable Wind from SSW
Gusts 2.0 mph

Today
High -- | Low -- °F
--% Chance of Precip.
Yesterday
High -- | Low -- °F
Precip. -- in
Pressure 30.29 in
Visibility 10.0 miles
Clouds Overcast 1700 ft
Dew Point 54 °F
Humidity 84%
Rainfall 0.02 in
Snow Depth Not available.
6:31 AM 5:41 PM
Waning Crescent, 29% visible
METAR KCQT 210247Z AUTO 00000KT 10SM OVC017 16/13 A3029 RMK AO2 SLP256 T01560133 51016
Pressure 30.29 in
Visibility 10.0 miles
Clouds Overcast 1700 ft
Dew Point 54 °F
Humidity 84%
Rainfall 0.02 in
Snow Depth Not available.
6:31 AM 5:41 PM
Waning Crescent, 29% visible
METAR KCQT 210247Z AUTO 00000KT 10SM OVC017 16/13 A3029 RMK AO2 SLP256 T01560133 51016

Get Your Daily Forecast Email!

Thanks for signing up!

Be on the lookout for a verification email in your inbox.

You'll start receiving the daily forecast at 8 AM.

×

10-Day Weather Forecast

Almanac

Astronomy

Feb. 20, 2017 Rise Set
Actual Time
Civil Twilight
Nautical Twilight
Astronomical Twilight
Moon
Length of Visible Light
Length of Day
Tomorrow will be .
, % of the Moon is Illuminated

Today's Extremes

State Highs State Lows

Community

WunderPhotos

Upload Photos

1,962,540 photos uploaded!

WunderBlog® & News

Nearby

Air Quality

  Air Quality AQ Index Pollutant
Not available.

Snow Depth

Station Depth Elevation

Earthquake Activity

City Distance Mag. Time & Date
Minimum magnitude displayed is 2.5.

Coastal Water Temperatures

Place Temperature

Stations

Nearby Weather Stations

Station Location Temp. Windchill Dew Point Humidity Wind Precip. Elev Updated Type
                   

Watches & Warnings

There are currently no watches in effect.